createdAt,value
2018-03-02T00:00:58.631Z,56.00
2018-03-02T00:03:26.181Z,52.53
2018-03-02T00:05:53.745Z,55.60
2018-03-02T00:08:21.281Z,53.50
2018-03-02T00:10:49.810Z,52.57
2018-03-02T00:13:17.351Z,54.13
2018-03-02T00:15:44.893Z,53.00
2018-03-02T00:18:12.452Z,55.63
2018-03-02T00:20:39.983Z,53.23
2018-03-02T00:23:09.528Z,53.40
2018-03-02T00:25:37.260Z,56.70
2018-03-02T00:28:04.801Z,56.67
2018-03-02T00:30:33.133Z,55.10
2018-03-02T00:33:00.673Z,51.97
2018-03-02T00:35:28.235Z,54.63
2018-03-02T00:37:55.772Z,51.07
2018-03-02T00:40:24.314Z,53.37
2018-03-02T00:42:52.632Z,53.17
2018-03-02T00:45:20.171Z,53.77
2018-03-02T00:47:48.572Z,53.37
2018-03-02T00:50:16.117Z,56.27
2018-03-02T00:52:43.688Z,53.27
2018-03-02T00:55:11.222Z,53.70
2018-03-02T00:57:39.744Z,54.73
2018-03-02T01:00:07.275Z,55.47
2018-03-02T01:02:34.820Z,54.20
2018-03-02T01:05:02.387Z,53.07
2018-03-02T01:07:29.927Z,54.63
2018-03-02T01:09:57.505Z,53.03
2018-03-02T01:12:25.819Z,54.57
2018-03-02T01:14:53.369Z,55.30
2018-03-02T01:17:20.919Z,55.30
2018-03-02T01:19:48.466Z,52.63
2018-03-02T01:22:16.002Z,53.03
2018-03-02T01:24:44.325Z,55.43
2018-03-02T01:27:11.846Z,54.90
2018-03-02T01:29:39.405Z,55.43
2018-03-02T01:32:06.937Z,54.53
2018-03-02T01:34:34.498Z,53.27
2018-03-02T01:37:02.031Z,54.60
2018-03-02T01:39:29.590Z,56.30
2018-03-02T01:41:57.117Z,55.17
2018-03-02T01:44:24.685Z,55.27
2018-03-02T01:46:52.235Z,54.43
2018-03-02T01:49:19.793Z,54.87
2018-03-02T01:51:48.948Z,56.30
2018-03-02T01:54:16.470Z,53.63
2018-03-02T01:56:44.023Z,55.47
2018-03-02T01:59:11.570Z,54.27
2018-03-02T02:01:41.070Z,55.00
2018-03-02T02:04:08.589Z,55.90
2018-03-02T02:06:36.151Z,51.47
2018-03-02T02:09:03.691Z,71.93
2018-03-02T02:11:31.244Z,55.00
2018-03-02T02:13:58.796Z,56.47
2018-03-02T02:16:26.331Z,55.30
2018-03-02T02:18:53.894Z,57.13
2018-03-02T02:21:21.436Z,58.10
2018-03-02T02:23:48.990Z,56.90
2018-03-02T02:26:16.575Z,60.60
2018-03-02T02:28:44.101Z,54.63
2018-03-02T02:31:12.414Z,56.90
2018-03-02T02:33:40.920Z,56.30
2018-03-02T02:36:08.490Z,56.20
2018-03-02T02:38:37.011Z,57.33
2018-03-02T02:41:04.577Z,56.70
2018-03-02T02:43:32.124Z,57.40
2018-03-02T02:45:59.673Z,56.70
2018-03-02T02:48:29.184Z,56.30
2018-03-02T02:50:56.720Z,56.70
2018-03-02T02:53:24.284Z,54.60
2018-03-02T02:55:52.594Z,54.00
2018-03-02T02:58:20.149Z,56.13
2018-03-02T03:00:48.650Z,54.20
2018-03-02T03:03:16.181Z,56.60
2018-03-02T03:05:43.740Z,55.87
2018-03-02T03:08:11.276Z,55.77
2018-03-02T03:10:38.830Z,55.60
2018-03-02T03:13:06.394Z,55.37
2018-03-02T03:15:34.736Z,56.20
2018-03-02T03:18:03.238Z,53.80
2018-03-02T03:20:30.807Z,54.70
2018-03-02T03:22:58.338Z,56.23
2018-03-02T03:25:25.862Z,54.10
2018-03-02T03:27:53.416Z,53.80
2018-03-02T03:30:20.946Z,56.77
2018-03-02T03:32:48.502Z,57.23
2018-03-02T03:35:16.079Z,53.63
2018-03-02T03:37:45.402Z,56.60
2018-03-02T03:40:13.014Z,54.40
2018-03-02T03:42:40.574Z,52.10
2018-03-02T03:45:08.099Z,55.03
2018-03-02T03:47:35.623Z,56.13
2018-03-02T03:50:03.182Z,55.67
2018-03-02T03:52:31.474Z,54.50
2018-03-02T03:54:59.026Z,54.70
2018-03-02T03:57:26.558Z,54.43
2018-03-02T03:59:54.128Z,54.40
2018-03-02T04:02:22.422Z,53.63
2018-03-02T04:04:49.982Z,66.00
2018-03-02T04:07:18.473Z,58.30
2018-03-02T04:09:47.965Z,63.27
2018-03-02T04:12:15.495Z,57.00
2018-03-02T04:14:43.034Z,56.57
2018-03-02T04:17:10.591Z,55.27
2018-03-02T04:19:38.118Z,57.27
2018-03-02T04:22:05.692Z,57.57
2018-03-02T04:24:33.213Z,56.33
2018-03-02T04:27:00.777Z,58.70
2018-03-02T04:29:29.273Z,82.70
2018-03-02T04:31:56.846Z,67.07
2018-03-02T04:34:24.385Z,63.03
2018-03-02T04:36:51.915Z,60.10
2018-03-02T04:39:20.242Z,54.97
2018-03-02T04:41:47.775Z,54.97
2018-03-02T04:44:15.337Z,54.40
2018-03-02T04:46:42.861Z,55.10
2018-03-02T04:49:11.186Z,56.23
2018-03-02T04:51:38.719Z,55.20
2018-03-02T04:54:08.232Z,55.20
2018-03-02T04:56:35.778Z,55.13
2018-03-02T04:59:03.354Z,52.10
2018-03-02T05:01:30.881Z,55.33
2018-03-02T05:03:58.415Z,56.37
2018-03-02T05:06:25.976Z,56.27
2018-03-02T05:08:53.504Z,54.10
2018-03-02T05:11:22.047Z,53.93
2018-03-02T05:13:49.603Z,54.50
2018-03-02T05:16:17.930Z,55.47
2018-03-02T05:18:45.468Z,56.00
2018-03-02T05:21:13.043Z,51.77
2018-03-02T05:23:40.582Z,56.00
2018-03-02T05:26:09.223Z,55.30
2018-03-02T05:28:36.795Z,54.60
2018-03-02T05:31:05.089Z,55.90
2018-03-02T05:33:33.420Z,55.80
2018-03-02T05:36:00.950Z,53.03
2018-03-02T05:38:29.474Z,54.93
2018-03-02T05:40:57.779Z,56.30
2018-03-02T05:43:25.333Z,53.43
2018-03-02T05:45:53.623Z,54.67
2018-03-02T05:48:21.166Z,54.50
2018-03-02T05:50:49.485Z,54.97
2018-03-02T05:53:17.020Z,52.50
2018-03-02T05:55:44.575Z,52.90
2018-03-02T05:58:13.065Z,53.43
2018-03-02T06:00:40.636Z,56.13
2018-03-02T06:03:08.199Z,55.93
2018-03-02T06:05:35.754Z,54.90
2018-03-02T06:08:03.288Z,55.00
2018-03-02T06:10:30.837Z,55.43
2018-03-02T06:12:58.374Z,56.60
2018-03-02T06:15:25.964Z,57.87
2018-03-02T06:17:53.517Z,61.50
2018-03-02T06:20:21.817Z,62.83
2018-03-02T06:22:49.461Z,62.50
2018-03-02T06:25:16.990Z,58.70
2018-03-02T06:27:44.562Z,57.97
2018-03-02T06:30:12.102Z,54.57
2018-03-02T06:32:41.658Z,58.00
2018-03-02T06:35:09.190Z,56.63
2018-03-02T06:37:36.817Z,57.47
2018-03-02T06:40:06.089Z,59.70
2018-03-02T06:42:33.658Z,56.97
2018-03-02T06:45:01.218Z,54.07
2018-03-02T06:47:28.957Z,55.17
2018-03-02T06:49:56.534Z,55.17
2018-03-02T06:52:24.119Z,57.13
2018-03-02T06:54:51.677Z,55.43
2018-03-02T06:57:20.023Z,60.53
2018-03-02T06:59:47.820Z,56.93
2018-03-02T07:02:15.400Z,58.10
2018-03-02T07:04:43.734Z,57.07
2018-03-02T07:07:11.302Z,59.47
2018-03-02T07:09:38.844Z,60.47
2018-03-02T07:12:06.401Z,60.20
2018-03-02T07:14:33.944Z,62.00
2018-03-02T07:17:01.494Z,57.23
2018-03-02T07:19:29.030Z,56.67
2018-03-02T07:21:56.620Z,55.50
2018-03-02T07:24:24.156Z,55.53
2018-03-02T07:26:52.563Z,54.13
2018-03-02T07:29:20.157Z,57.93
2018-03-02T07:31:47.687Z,56.77
2018-03-02T07:34:15.258Z,55.53
2018-03-02T07:36:42.832Z,56.07
2018-03-02T07:39:10.400Z,57.93
2018-03-02T07:41:37.948Z,57.77
2018-03-02T07:44:05.507Z,56.60
2018-03-02T07:46:33.983Z,55.17
2018-03-02T07:49:01.538Z,54.33
2018-03-02T07:51:30.052Z,54.63
2018-03-02T07:53:57.581Z,56.50
2018-03-02T07:56:26.366Z,56.20
2018-03-02T07:58:54.107Z,58.43
2018-03-02T08:01:22.822Z,57.00
2018-03-02T08:03:50.515Z,54.53
2018-03-02T08:06:18.859Z,54.90
2018-03-02T08:08:46.397Z,52.93
2018-03-02T08:11:13.955Z,54.10
2018-03-02T08:13:41.491Z,53.93
2018-03-02T08:16:09.107Z,55.97
2018-03-02T08:18:38.591Z,56.93
2018-03-02T08:21:06.138Z,57.03
2018-03-02T08:23:33.693Z,55.97
2018-03-02T08:26:01.308Z,58.57
2018-03-02T08:28:28.903Z,54.80
2018-03-02T08:30:56.427Z,55.17
2018-03-02T08:33:24.749Z,56.77
2018-03-02T08:35:52.278Z,53.57
2018-03-02T08:38:19.818Z,57.47
2018-03-02T08:40:47.361Z,56.40
2018-03-02T08:43:14.887Z,56.33
2018-03-02T08:45:42.503Z,54.20
2018-03-02T08:48:10.026Z,55.50
2018-03-02T08:50:37.594Z,56.40
2018-03-02T08:53:05.145Z,67.63
2018-03-02T08:55:32.702Z,57.10
2018-03-02T08:58:00.224Z,53.70
2018-03-02T09:00:27.775Z,55.80
2018-03-02T09:02:56.264Z,54.73
2018-03-02T09:05:23.782Z,54.17
2018-03-02T09:07:53.285Z,54.10
2018-03-02T09:10:20.810Z,56.90
2018-03-02T09:12:48.367Z,56.17
2018-03-02T09:15:15.891Z,55.03
2018-03-02T09:17:43.451Z,54.87
2018-03-02T09:20:10.977Z,56.47
2018-03-02T09:22:40.478Z,55.77
2018-03-02T09:25:08.039Z,52.70
2018-03-02T09:27:36.365Z,53.57
2018-03-02T09:30:04.021Z,56.13
2018-03-02T09:32:31.578Z,55.23
2018-03-02T09:34:59.154Z,54.50
2018-03-02T09:37:26.719Z,52.33
2018-03-02T09:39:54.282Z,57.40
2018-03-02T09:42:21.812Z,57.47
2018-03-02T09:44:51.350Z,59.60
2018-03-02T09:47:19.837Z,56.77
2018-03-02T09:49:48.334Z,56.63
2018-03-02T09:52:15.913Z,57.37
2018-03-02T09:54:43.454Z,57.37
2018-03-02T09:57:11.044Z,57.20
2018-03-02T09:59:38.582Z,55.73
2018-03-02T10:02:06.137Z,50.67
2018-03-02T10:04:33.702Z,56.47
2018-03-02T10:07:01.330Z,56.73
2018-03-02T10:09:28.854Z,56.60
2018-03-02T10:11:58.357Z,56.47
2018-03-02T10:14:26.661Z,49.10
2018-03-02T10:16:54.252Z,55.43
2018-03-02T10:19:21.818Z,55.20
2018-03-02T10:21:49.358Z,52.17
2018-03-02T10:24:16.912Z,57.97
2018-03-02T10:26:44.445Z,56.87
2018-03-02T10:29:12.038Z,59.03
2018-03-02T10:31:39.596Z,58.20
2018-03-02T10:34:07.199Z,58.47
2018-03-02T10:36:35.570Z,56.93
2018-03-02T10:39:03.900Z,59.43
2018-03-02T10:41:31.474Z,56.33
2018-03-02T10:43:59.011Z,57.87
2018-03-02T10:46:26.574Z,57.07
2018-03-02T10:48:54.128Z,58.27
2018-03-02T10:51:21.689Z,56.57
2018-03-02T10:53:50.181Z,58.90
2018-03-02T10:56:17.761Z,60.63
2018-03-02T10:58:45.314Z,62.20
2018-03-02T11:01:12.869Z,67.67
2018-03-02T11:03:46.127Z,72.43
2018-03-02T11:06:13.682Z,60.33
2018-03-02T11:08:41.219Z,60.17
2018-03-02T11:11:09.570Z,59.13
2018-03-02T11:13:37.096Z,62.47
2018-03-02T11:16:04.623Z,58.77
2018-03-02T11:18:33.588Z,59.17
2018-03-02T11:21:02.504Z,58.83
2018-03-02T11:23:30.068Z,60.50
2018-03-02T11:25:57.609Z,61.13
2018-03-02T11:28:25.174Z,56.90
2018-03-02T11:30:53.474Z,57.00
2018-03-02T11:33:21.040Z,62.40
2018-03-02T11:35:48.566Z,61.57
2018-03-02T11:38:16.887Z,61.13
2018-03-02T11:40:44.415Z,59.13
2018-03-02T11:43:11.975Z,61.03
2018-03-02T11:45:39.535Z,57.80
2018-03-02T11:48:07.058Z,60.70
2018-03-02T11:50:34.606Z,62.92
2018-03-02T11:53:02.142Z,62.23
2018-03-02T11:55:29.820Z,60.40
2018-03-02T11:57:57.347Z,58.10
2018-03-02T12:00:25.910Z,61.60
2018-03-02T12:02:53.446Z,60.90
2018-03-02T12:05:20.969Z,58.70
2018-03-02T12:07:48.524Z,61.87
2018-03-02T12:10:16.064Z,58.73
2018-03-02T12:12:43.622Z,62.43
2018-03-02T12:15:11.159Z,61.30
2018-03-02T12:17:38.714Z,58.70
2018-03-02T12:20:06.248Z,60.07
2018-03-02T12:22:35.611Z,60.57
2018-03-02T12:25:03.262Z,59.50
2018-03-02T12:27:30.792Z,60.87
2018-03-02T12:29:59.123Z,57.40
2018-03-02T12:32:26.660Z,60.03
2018-03-02T12:34:54.218Z,58.07
2018-03-02T12:37:21.746Z,57.43
2018-03-02T12:39:49.299Z,59.27
2018-03-02T12:42:17.770Z,58.80
2018-03-02T12:44:45.326Z,59.23
2018-03-02T12:47:13.624Z,60.20
2018-03-02T12:49:41.189Z,58.13
2018-03-02T12:52:08.717Z,59.10
2018-03-02T12:54:36.342Z,60.87
2018-03-02T12:57:03.867Z,60.77
2018-03-02T12:59:31.399Z,61.60
2018-03-02T13:01:58.962Z,61.40
2018-03-02T13:04:26.490Z,63.47
2018-03-02T13:06:54.048Z,62.40
2018-03-02T13:09:21.576Z,64.00
2018-03-02T13:11:49.118Z,60.17
2018-03-02T13:14:16.966Z,58.47
2018-03-02T13:16:45.505Z,59.90
2018-03-02T13:19:15.026Z,58.80
2018-03-02T13:21:42.594Z,60.07
2018-03-02T13:24:10.184Z,61.03
2018-03-02T13:26:50.290Z,59.80
2018-03-02T13:29:17.934Z,61.93
2018-03-02T13:31:45.483Z,62.43
2018-03-02T13:37:18.368Z,65.97
2018-03-02T13:39:57.673Z,63.50
2018-03-02T13:42:25.225Z,62.60
2018-03-02T13:44:52.778Z,60.70
2018-03-02T13:47:20.298Z,60.70
2018-03-02T13:50:00.827Z,60.00
2018-03-02T13:52:28.353Z,63.70
2018-03-02T13:54:55.908Z,62.00
2018-03-02T13:57:35.278Z,64.17
2018-03-02T14:00:02.825Z,64.47
2018-03-02T14:02:42.176Z,70.20
2018-03-02T14:05:09.733Z,64.03
2018-03-02T14:07:37.260Z,63.87
2018-03-02T14:10:05.735Z,60.17
2018-03-02T14:12:33.268Z,64.30
2018-03-02T14:15:00.803Z,65.47
2018-03-02T14:17:28.354Z,67.83
2018-03-02T14:19:55.898Z,72.00
2018-03-02T14:22:23.480Z,69.27
2018-03-02T14:24:51.011Z,64.37
2018-03-02T14:27:18.570Z,67.03
2018-03-02T14:29:46.138Z,68.87
2018-03-02T14:32:14.499Z,69.70
2018-03-02T14:34:42.028Z,72.80
2018-03-02T14:37:09.558Z,74.07
2018-03-02T14:39:39.078Z,73.67
2018-03-02T14:42:06.601Z,71.67
2018-03-02T14:44:34.160Z,71.27
2018-03-02T14:47:01.694Z,72.03
2018-03-02T14:49:29.246Z,78.53
2018-03-02T14:51:56.788Z,73.50
2018-03-02T14:54:26.286Z,71.97
2018-03-02T14:56:54.791Z,82.20
2018-03-02T14:59:22.318Z,77.73
2018-03-02T15:01:49.872Z,78.07
2018-03-02T15:04:18.346Z,77.80
2018-03-02T15:06:45.916Z,81.80
2018-03-02T15:09:13.451Z,77.50
2018-03-02T15:11:41.001Z,76.20
2018-03-02T15:14:08.536Z,76.40
2018-03-02T15:16:36.094Z,82.13
2018-03-02T15:19:03.683Z,78.60
2018-03-02T15:21:31.982Z,80.93
2018-03-02T15:23:59.551Z,80.30
2018-03-02T15:26:28.163Z,80.77
2018-03-02T15:28:55.716Z,81.30
2018-03-02T15:31:23.239Z,83.30
2018-03-02T15:33:50.802Z,85.33
2018-03-02T15:36:18.324Z,83.07
2018-03-02T15:38:47.863Z,80.27
2018-03-02T15:41:16.381Z,80.30
2018-03-02T15:46:17.881Z,80.50
2018-03-02T15:48:45.448Z,73.40
2018-03-02T15:51:12.974Z,71.10
2018-03-02T15:53:40.520Z,69.60
2018-03-02T15:56:08.078Z,67.73
2018-03-02T15:58:35.598Z,67.47
2018-03-02T16:01:03.149Z,60.33
2018-03-02T16:03:30.686Z,59.73
2018-03-02T16:05:59.008Z,59.20
2018-03-02T16:08:26.562Z,77.73
2018-03-02T16:10:54.119Z,59.83
2018-03-02T16:13:22.600Z,57.27
2018-03-02T16:15:50.360Z,63.67
2018-03-02T16:18:17.887Z,57.07
2018-03-02T16:20:45.448Z,51.67
2018-03-02T16:23:13.012Z,54.90
2018-03-02T16:25:40.542Z,48.77
2018-03-02T16:28:08.095Z,53.17
2018-03-02T16:30:35.774Z,50.20
2018-03-02T16:33:03.553Z,50.50
2018-03-02T16:35:31.112Z,51.50
2018-03-02T16:37:59.617Z,46.80
2018-03-02T16:40:27.145Z,46.77
2018-03-02T16:42:55.432Z,50.47
2018-03-02T16:45:24.734Z,54.03
2018-03-02T16:47:52.270Z,52.87
2018-03-02T16:50:19.840Z,52.10
2018-03-02T16:52:48.146Z,50.23
2018-03-02T16:55:17.658Z,47.60
2018-03-02T16:57:46.158Z,43.10
2018-03-02T17:00:13.729Z,47.27
2018-03-02T17:02:41.270Z,49.80
2018-03-02T17:05:08.815Z,40.33
2018-03-02T17:07:36.370Z,36.87
2018-03-02T17:10:03.995Z,40.30
2018-03-02T17:12:31.546Z,32.97
2018-03-02T17:14:59.073Z,34.53
2018-03-02T17:17:26.625Z,31.30
2018-03-02T17:19:54.155Z,28.77
2018-03-02T17:22:21.713Z,33.50
2018-03-02T17:24:49.262Z,34.27
2018-03-02T17:27:16.829Z,32.70
2018-03-02T17:29:44.387Z,29.67
2018-03-02T17:32:11.913Z,30.93
2018-03-02T17:34:39.467Z,31.70
2018-03-02T17:37:09.014Z,31.00
2018-03-02T17:39:36.643Z,34.27
2018-03-02T17:42:04.915Z,39.63
2018-03-02T17:44:34.407Z,40.00
2018-03-02T17:47:04.124Z,36.73
2018-03-02T17:49:32.863Z,30.47
2018-03-02T17:52:00.417Z,47.47
2018-03-02T17:54:29.664Z,30.90
2018-03-02T17:56:57.316Z,26.63
2018-03-02T17:59:25.653Z,39.47
2018-03-02T18:01:53.209Z,101.60
2018-03-02T18:04:20.749Z,53.13
2018-03-02T18:06:48.354Z,61.73
2018-03-02T18:09:15.910Z,108.93
2018-03-02T18:11:43.465Z,52.80
2018-03-02T18:14:11.583Z,25.97
2018-03-02T18:16:39.194Z,29.83
2018-03-02T18:19:06.738Z,30.77
2018-03-02T18:21:34.269Z,69.57
2018-03-02T18:24:04.524Z,30.63
2018-03-02T18:26:32.054Z,29.70
2018-03-02T18:29:00.578Z,31.50
2018-03-02T18:31:29.149Z,30.13
2018-03-02T18:33:56.724Z,27.40
2018-03-02T18:36:24.265Z,24.07
2018-03-02T18:38:51.822Z,32.00
2018-03-02T18:41:19.354Z,34.73
2018-03-02T18:43:47.652Z,30.93
2018-03-02T18:46:15.271Z,27.07
2018-03-02T18:48:43.575Z,30.67
2018-03-02T18:51:11.134Z,34.90
2018-03-02T18:53:38.684Z,32.60
2018-03-02T18:56:06.256Z,28.43
2018-03-02T18:58:33.789Z,23.00
2018-03-02T19:01:02.301Z,19.00
2018-03-02T19:03:29.821Z,17.37
2018-03-02T19:05:57.351Z,16.17
2018-03-02T19:08:25.687Z,16.70
2018-03-02T19:10:53.609Z,17.20
2018-03-02T19:13:21.178Z,17.80
2018-03-02T19:15:48.709Z,16.40
2018-03-02T19:18:16.269Z,18.00
2018-03-02T19:20:43.798Z,23.00
2018-03-02T19:23:11.349Z,24.80
2018-03-02T19:25:38.889Z,21.53
2018-03-02T19:28:09.140Z,22.80
2018-03-02T19:30:36.669Z,16.43
2018-03-02T19:33:04.219Z,13.13
2018-03-02T19:35:33.507Z,13.47
2018-03-02T19:38:01.033Z,15.10
2018-03-02T19:40:28.594Z,14.90
2018-03-02T19:42:56.331Z,14.30
2018-03-02T19:45:23.938Z,28.97
2018-03-02T19:47:51.470Z,19.07
2018-03-02T19:50:19.035Z,10.27
2018-03-02T19:52:46.575Z,11.30
2018-03-02T19:55:14.110Z,15.97
2018-03-02T19:57:41.709Z,12.60
2018-03-02T20:00:09.239Z,10.93
2018-03-02T20:02:36.809Z,10.50
2018-03-02T20:05:04.347Z,10.43
2018-03-02T20:07:32.834Z,8.07
2018-03-02T20:10:01.190Z,11.03
2018-03-02T20:12:30.714Z,11.50
2018-03-02T20:14:58.411Z,9.53
2018-03-02T20:17:26.734Z,9.70
2018-03-02T20:19:54.285Z,9.00
2018-03-02T20:22:22.209Z,8.80
2018-03-02T20:24:50.781Z,8.30
2018-03-02T20:27:18.759Z,8.40
2018-03-02T20:29:46.346Z,10.40
2018-03-02T20:32:13.897Z,10.87
2018-03-02T20:34:41.454Z,11.10
2018-03-02T20:37:08.994Z,12.43
2018-03-02T20:39:36.554Z,11.10
2018-03-02T20:42:04.094Z,10.60
2018-03-02T20:44:31.639Z,12.20
2018-03-02T20:46:59.959Z,13.60
2018-03-02T20:49:27.530Z,18.27
2018-03-02T20:51:55.080Z,16.37
2018-03-02T20:54:22.611Z,10.90
2018-03-02T20:56:50.200Z,12.10
2018-03-02T20:59:17.739Z,15.30
2018-03-02T21:01:45.282Z,9.10
2018-03-02T21:04:12.817Z,10.73
2018-03-02T21:06:42.067Z,8.27
2018-03-02T21:09:09.633Z,9.80
2018-03-02T21:11:37.150Z,8.87
2018-03-02T21:14:04.706Z,9.00
2018-03-02T21:16:32.239Z,9.93
2018-03-02T21:18:59.791Z,8.03
2018-03-02T21:21:27.312Z,8.17
2018-03-02T21:23:54.871Z,9.80
2018-03-02T21:26:22.398Z,10.97
2018-03-02T21:28:50.681Z,11.80
2018-03-02T21:31:18.258Z,11.57
2018-03-02T21:33:45.864Z,11.57
2018-03-02T21:36:13.413Z,10.87
2018-03-02T21:38:40.947Z,10.00
2018-03-02T21:41:08.510Z,8.40
2018-03-02T21:43:36.038Z,8.33
2018-03-02T21:46:03.605Z,7.50
2018-03-02T21:48:31.806Z,7.73
2018-03-02T21:50:59.349Z,8.23
2018-03-02T21:53:26.885Z,11.17
2018-03-02T21:55:54.404Z,8.73
2018-03-02T21:58:21.968Z,9.07
2018-03-02T22:00:49.486Z,8.30
2018-03-02T22:03:17.054Z,7.77
2018-03-02T22:05:45.553Z,8.90
2018-03-02T22:08:13.108Z,7.80
2018-03-02T22:10:43.676Z,8.43
2018-03-02T22:13:18.327Z,7.80
2018-03-02T22:15:45.967Z,6.60
2018-03-02T22:18:14.435Z,6.47
2018-03-02T22:20:42.775Z,6.60
2018-03-02T22:23:10.304Z,8.23
2018-03-02T22:25:37.852Z,6.37
2018-03-02T22:28:05.383Z,7.50
2018-03-02T22:30:32.934Z,7.30
2018-03-02T22:33:00.466Z,7.37
2018-03-02T22:35:28.023Z,6.00
2018-03-02T22:37:55.550Z,7.53
2018-03-02T22:40:24.080Z,6.57
2018-03-02T22:42:51.595Z,7.13
2018-03-02T22:45:19.121Z,13.10
2018-03-02T22:47:46.707Z,6.20
2018-03-02T22:50:14.239Z,6.13
2018-03-02T22:52:42.559Z,6.00
2018-03-02T22:55:10.073Z,6.60
2018-03-02T22:57:38.399Z,7.10
2018-03-02T23:00:06.134Z,6.62
2018-03-02T23:02:36.382Z,7.03
2018-03-02T23:05:03.921Z,6.80
2018-03-02T23:07:31.450Z,6.60
2018-03-02T23:09:59.003Z,7.80
2018-03-02T23:12:27.314Z,6.30
2018-03-02T23:14:54.888Z,6.93
2018-03-02T23:17:23.385Z,8.20
2018-03-02T23:19:52.882Z,11.23
2018-03-02T23:22:20.405Z,10.73
2018-03-02T23:24:47.957Z,11.63
2018-03-02T23:27:15.478Z,12.63
2018-03-02T23:29:44.961Z,12.90
2018-03-02T23:32:12.479Z,14.30
2018-03-02T23:34:40.020Z,12.83
2018-03-02T23:37:08.349Z,11.13
2018-03-02T23:39:35.872Z,11.57
2018-03-02T23:42:03.443Z,11.03
2018-03-02T23:44:30.973Z,10.80
2018-03-02T23:46:58.555Z,9.17
2018-03-02T23:49:26.084Z,9.97
2018-03-02T23:51:53.636Z,8.20
2018-03-02T23:54:21.186Z,7.60
2018-03-02T23:56:48.711Z,6.87
2018-03-02T23:59:16.294Z,6.10
